Airfield :
LOGIN :

Register | Disclaimer

   EN    FR    IT 

 










Legend :    VFR   Marginal VFR   IFR   Intensive IFR   Very Intensive IFR
Visi :
Ceiling :
>= 8 km
>= 3000ft
5 to 8 km
1000 to 3000 ft
1500m to 5 km
500 to 1000 ft
800 to 1500m
200 to 500 ft
< 800m
< 200 ft
Symbols :   Thunderstorms  Fog  Heavy snow  Heavy precipitations  Wind > 20 kt
SIGMETs :     Misc.  Thunderstorms  Icing  Turbulence  Mountain Waves  Volcanic Ashes






- Airport Elevation : 935 ft


EBFS - Florennes

CURRENT METAR :
  • 200025Z AUTO 20012KT 6000 BKN003/// 06/05 Q1020 YLO

EXPIRED METARs :
  • 192355Z AUTO 20012KT 5000 OVC003/// 06/05 Q1020 YLO
  • 192325Z AUTO 20013KT 7000 -RA OVC003/// 05/05 Q1020 YLO
  • 192255Z AUTO 20011KT 9000 OVC004/// 05/05 Q1021 YLO
  • 192225Z AUTO 19012KT 9999 BKN004/// BKN006/// 05/04 Q1021 YLO
  • 192203Z AUTO 19012KT 9999 -RA FEW004/// BKN006/// OVC008/// 05/04 Q1021 YLO

TAF TAF EBFS
Valid from the 19 at 19:00 until the 20 at 07:00 UTC


191541Z 1919/2007 21010G20KT 9999 BKN012
TEMPO 1919/2000 6000 -RA SCT008 BKN012
BECMG 1923/2001 7000 SCT006 BKN008
TEMPO 2000/2007 3000 -DZRA SCT004 BKN006



MET'MAP, your aeronautical weather chart ! - Copyright ORBIFLY December 2007 - Disclaimer

ORBIFLY MET'MAP TEAM :

Programming & Development : Alexandra Zaïnal
Concept & original design : Baudouin d'Aumeries
Assistance for programming : Marc-Olivier Méhu
Technical & hardware support : Manuel Goepfert

Contact : metmap@orbifly.com




SOURCES & CREDITS :

   NOAA